sensor_id;sensor_type;location;lat;lon;timestamp;pressure;altitude;pressure_sealevel;temperature;humidity
9335;BME280;4706;41.844;26.082;2024-02-23T00:01:26;100834.69;;;9.95;97.70
9335;BME280;4706;41.844;26.082;2024-02-23T00:03:52;100837.38;;;10.00;98.16
9335;BME280;4706;41.844;26.082;2024-02-23T00:06:17;100835.91;;;10.08;97.21
9335;BME280;4706;41.844;26.082;2024-02-23T00:08:43;100817.88;;;10.02;97.04
9335;BME280;4706;41.844;26.082;2024-02-23T00:11:09;100824.16;;;10.02;97.38
9335;BME280;4706;41.844;26.082;2024-02-23T00:13:35;100831.53;;;10.07;97.66
9335;BME280;4706;41.844;26.082;2024-02-23T00:16:00;100824.84;;;9.89;98.02
9335;BME280;4706;41.844;26.082;2024-02-23T00:18:26;100829.84;;;10.11;97.10
9335;BME280;4706;41.844;26.082;2024-02-23T00:20:51;100821.41;;;10.02;97.79
9335;BME280;4706;41.844;26.082;2024-02-23T00:23:17;100815.88;;;10.07;96.99
9335;BME280;4706;41.844;26.082;2024-02-23T00:25:44;100822.22;;;10.32;96.69
9335;BME280;4706;41.844;26.082;2024-02-23T00:28:10;100814.56;;;10.29;95.95
9335;BME280;4706;41.844;26.082;2024-02-23T00:30:35;100816.63;;;10.42;95.16
9335;BME280;4706;41.844;26.082;2024-02-23T00:33:01;100800.84;;;10.24;95.01
9335;BME280;4706;41.844;26.082;2024-02-23T00:35:26;100807.16;;;10.24;95.75
9335;BME280;4706;41.844;26.082;2024-02-23T00:37:52;100801.75;;;10.43;94.72
9335;BME280;4706;41.844;26.082;2024-02-23T00:40:17;100802.78;;;10.23;95.62
9335;BME280;4706;41.844;26.082;2024-02-23T00:42:43;100799.19;;;10.22;96.13
9335;BME280;4706;41.844;26.082;2024-02-23T00:45:08;100791.91;;;10.13;96.26
9335;BME280;4706;41.844;26.082;2024-02-23T00:47:34;100797.34;;;9.94;98.42
9335;BME280;4706;41.844;26.082;2024-02-23T00:50:01;100797.22;;;10.04;97.86
9335;BME280;4706;41.844;26.082;2024-02-23T00:52:27;100799.69;;;10.06;97.76
9335;BME280;4706;41.844;26.082;2024-02-23T00:54:52;100799.50;;;9.97;98.57
9335;BME280;4706;41.844;26.082;2024-02-23T00:57:18;100794.94;;;9.87;99.10
9335;BME280;4706;41.844;26.082;2024-02-23T00:59:48;100792.25;;;9.82;99.76
9335;BME280;4706;41.844;26.082;2024-02-23T01:02:14;100795.97;;;9.91;99.87
9335;BME280;4706;41.844;26.082;2024-02-23T01:04:39;100802.44;;;9.77;100.00
9335;BME280;4706;41.844;26.082;2024-02-23T01:07:05;100798.44;;;9.93;99.77
9335;BME280;4706;41.844;26.082;2024-02-23T01:09:30;100803.06;;;9.97;99.91
9335;BME280;4706;41.844;26.082;2024-02-23T01:11:55;100796.38;;;10.04;98.85
9335;BME280;4706;41.844;26.082;2024-02-23T01:14:21;100789.09;;;9.94;99.54
9335;BME280;4706;41.844;26.082;2024-02-23T01:16:46;100791.88;;;9.89;99.77
9335;BME280;4706;41.844;26.082;2024-02-23T01:19:12;100796.53;;;9.93;99.69
9335;BME280;4706;41.844;26.082;2024-02-23T01:21:38;100787.84;;;9.81;100.00
9335;BME280;4706;41.844;26.082;2024-02-23T01:24:04;100779.06;;;9.79;100.00
9335;BME280;4706;41.844;26.082;2024-02-23T01:26:30;100778.25;;;9.79;100.00
9335;BME280;4706;41.844;26.082;2024-02-23T01:28:55;100766.09;;;9.85;100.00
9335;BME280;4706;41.844;26.082;2024-02-23T01:31:21;100785.28;;;9.90;100.00
9335;BME280;4706;41.844;26.082;2024-02-23T01:33:47;100771.19;;;9.96;99.60
9335;BME280;4706;41.844;26.082;2024-02-23T01:36:14;100774.47;;;9.98;99.17
9335;BME280;4706;41.844;26.082;2024-02-23T01:38:40;100765.97;;;9.71;100.00
9335;BME280;4706;41.844;26.082;2024-02-23T01:41:08;100768.50;;;9.91;99.74
9335;BME280;4706;41.844;26.082;2024-02-23T01:43:33;100766.78;;;10.01;99.81
9335;BME280;4706;41.844;26.082;2024-02-23T01:45:59;100769.34;;;10.16;98.12
9335;BME280;4706;41.844;26.082;2024-02-23T01:48:25;100770.97;;;10.17;97.39
9335;BME280;4706;41.844;26.082;2024-02-23T01:50:51;100767.00;;;10.28;96.87
9335;BME280;4706;41.844;26.082;2024-02-23T01:53:17;100758.50;;;10.25;96.46
9335;BME280;4706;41.844;26.082;2024-02-23T01:55:45;100746.69;;;10.00;97.13
9335;BME280;4706;41.844;26.082;2024-02-23T01:58:11;100751.59;;;10.03;97.98
9335;BME280;4706;41.844;26.082;2024-02-23T02:00:37;100756.75;;;10.10;97.20
9335;BME280;4706;41.844;26.082;2024-02-23T02:03:03;100766.69;;;10.06;96.67
9335;BME280;4706;41.844;26.082;2024-02-23T02:05:28;100749.44;;;10.00;94.94
9335;BME280;4706;41.844;26.082;2024-02-23T02:07:55;100748.75;;;10.13;93.85
9335;BME280;4706;41.844;26.082;2024-02-23T02:10:24;100746.34;;;10.07;94.57
9335;BME280;4706;41.844;26.082;2024-02-23T02:12:50;100744.88;;;10.14;93.87
9335;BME280;4706;41.844;26.082;2024-02-23T02:15:16;100740.09;;;10.01;94.17
9335;BME280;4706;41.844;26.082;2024-02-23T02:17:41;100750.09;;;10.16;93.43
9335;BME280;4706;41.844;26.082;2024-02-23T02:20:11;100756.91;;;10.18;93.85
9335;BME280;4706;41.844;26.082;2024-02-23T02:22:37;100759.09;;;9.97;94.27
9335;BME280;4706;41.844;26.082;2024-02-23T02:25:03;100758.06;;;9.93;95.44
9335;BME280;4706;41.844;26.082;2024-02-23T02:27:28;100742.53;;;10.03;94.73
9335;BME280;4706;41.844;26.082;2024-02-23T02:29:54;100752.63;;;10.12;93.68
9335;BME280;4706;41.844;26.082;2024-02-23T02:32:19;100752.84;;;10.16;94.14
9335;BME280;4706;41.844;26.082;2024-02-23T02:34:44;100750.31;;;9.95;95.71
9335;BME280;4706;41.844;26.082;2024-02-23T02:37:10;100748.75;;;9.89;96.54
9335;BME280;4706;41.844;26.082;2024-02-23T02:39:36;100739.81;;;9.79;98.16
9335;BME280;4706;41.844;26.082;2024-02-23T02:42:01;100734.56;;;9.82;98.89
9335;BME280;4706;41.844;26.082;2024-02-23T02:44:27;100747.41;;;9.87;98.88
9335;BME280;4706;41.844;26.082;2024-02-23T02:46:58;100743.06;;;9.81;99.21
9335;BME280;4706;41.844;26.082;2024-02-23T02:49:24;100742.06;;;9.95;99.19
9335;BME280;4706;41.844;26.082;2024-02-23T02:51:50;100735.53;;;9.91;98.44
9335;BME280;4706;41.844;26.082;2024-02-23T02:54:15;100739.41;;;9.90;99.54
9335;BME280;4706;41.844;26.082;2024-02-23T02:56:45;100758.28;;;9.97;97.94
9335;BME280;4706;41.844;26.082;2024-02-23T02:59:12;100757.84;;;9.85;98.43
9335;BME280;4706;41.844;26.082;2024-02-23T03:01:37;100745.53;;;9.82;96.81
9335;BME280;4706;41.844;26.082;2024-02-23T03:04:03;100731.91;;;9.96;96.73
9335;BME280;4706;41.844;26.082;2024-02-23T03:06:28;100747.00;;;9.98;96.34
9335;BME280;4706;41.844;26.082;2024-02-23T03:08:54;100742.97;;;9.91;96.92
9335;BME280;4706;41.844;26.082;2024-02-23T03:11:19;100745.06;;;9.99;96.06
9335;BME280;4706;41.844;26.082;2024-02-23T03:13:45;100747.41;;;9.87;96.87
9335;BME280;4706;41.844;26.082;2024-02-23T03:16:17;100736.75;;;9.80;96.55
9335;BME280;4706;41.844;26.082;2024-02-23T03:18:43;100749.28;;;9.91;96.97
9335;BME280;4706;41.844;26.082;2024-02-23T03:21:08;100725.94;;;9.89;94.99
9335;BME280;4706;41.844;26.082;2024-02-23T03:23:35;100723.97;;;9.94;94.08
9335;BME280;4706;41.844;26.082;2024-02-23T03:26:01;100733.78;;;10.01;94.31
9335;BME280;4706;41.844;26.082;2024-02-23T03:28:28;100731.84;;;10.01;94.75
9335;BME280;4706;41.844;26.082;2024-02-23T03:30:53;100737.50;;;10.10;94.59
9335;BME280;4706;41.844;26.082;2024-02-23T03:33:19;100736.97;;;10.08;94.28
9335;BME280;4706;41.844;26.082;2024-02-23T03:35:45;100734.22;;;10.08;93.96
9335;BME280;4706;41.844;26.082;2024-02-23T03:38:10;100733.25;;;9.98;94.80
9335;BME280;4706;41.844;26.082;2024-02-23T03:40:36;100723.66;;;9.96;94.79
9335;BME280;4706;41.844;26.082;2024-02-23T03:43:02;100731.03;;;10.01;94.77
9335;BME280;4706;41.844;26.082;2024-02-23T03:45:28;100729.75;;;9.93;95.45
9335;BME280;4706;41.844;26.082;2024-02-23T03:47:53;100734.94;;;9.94;95.82
9335;BME280;4706;41.844;26.082;2024-02-23T03:50:19;100737.78;;;9.89;93.78
9335;BME280;4706;41.844;26.082;2024-02-23T03:52:45;100733.31;;;9.93;92.51
9335;BME280;4706;41.844;26.082;2024-02-23T03:55:10;100731.56;;;10.03;92.73
9335;BME280;4706;41.844;26.082;2024-02-23T03:57:36;100726.06;;;10.03;93.19
9335;BME280;4706;41.844;26.082;2024-02-23T04:00:02;100722.81;;;10.01;93.84
9335;BME280;4706;41.844;26.082;2024-02-23T04:02:28;100734.38;;;9.97;94.53
9335;BME280;4706;41.844;26.082;2024-02-23T04:04:54;100735.25;;;9.93;92.64
9335;BME280;4706;41.844;26.082;2024-02-23T04:07:20;100738.63;;;9.85;93.27
9335;BME280;4706;41.844;26.082;2024-02-23T04:09:45;100729.91;;;9.78;93.82
9335;BME280;4706;41.844;26.082;2024-02-23T04:12:18;100732.47;;;9.69;92.14
9335;BME280;4706;41.844;26.082;2024-02-23T04:14:44;100731.13;;;9.66;91.30
9335;BME280;4706;41.844;26.082;2024-02-23T04:17:10;100714.03;;;9.75;90.70
9335;BME280;4706;41.844;26.082;2024-02-23T04:19:37;100722.03;;;9.71;90.66
9335;BME280;4706;41.844;26.082;2024-02-23T04:22:03;100734.34;;;9.73;89.93
9335;BME280;4706;41.844;26.082;2024-02-23T04:24:29;100733.53;;;9.73;89.73
9335;BME280;4706;41.844;26.082;2024-02-23T04:26:54;100730.03;;;9.67;89.83
9335;BME280;4706;41.844;26.082;2024-02-23T04:29:20;100723.28;;;9.55;90.34
9335;BME280;4706;41.844;26.082;2024-02-23T04:31:45;100738.84;;;9.64;89.94
9335;BME280;4706;41.844;26.082;2024-02-23T04:34:11;100730.06;;;9.62;89.20
9335;BME280;4706;41.844;26.082;2024-02-23T04:36:36;100727.53;;;9.71;88.63
9335;BME280;4706;41.844;26.082;2024-02-23T04:39:02;100727.22;;;9.72;88.49
9335;BME280;4706;41.844;26.082;2024-02-23T04:41:28;100730.31;;;9.66;88.08
9335;BME280;4706;41.844;26.082;2024-02-23T04:43:53;100720.75;;;9.63;87.62
9335;BME280;4706;41.844;26.082;2024-02-23T04:46:24;100725.41;;;9.63;87.17
9335;BME280;4706;41.844;26.082;2024-02-23T04:48:49;100736.09;;;9.64;86.57
9335;BME280;4706;41.844;26.082;2024-02-23T04:51:14;100732.94;;;9.52;86.59
9335;BME280;4706;41.844;26.082;2024-02-23T04:53:40;100734.66;;;9.43;87.20
9335;BME280;4706;41.844;26.082;2024-02-23T04:56:06;100742.38;;;9.41;87.17
9335;BME280;4706;41.844;26.082;2024-02-23T04:58:31;100736.59;;;9.42;87.49
9335;BME280;4706;41.844;26.082;2024-02-23T05:00:57;100733.66;;;9.34;87.52
9335;BME280;4706;41.844;26.082;2024-02-23T05:03:22;100735.84;;;9.32;88.11
9335;BME280;4706;41.844;26.082;2024-02-23T05:05:48;100731.25;;;9.27;87.81
9335;BME280;4706;41.844;26.082;2024-02-23T05:08:19;100727.69;;;9.27;87.63
9335;BME280;4706;41.844;26.082;2024-02-23T05:10:46;100747.72;;;9.27;88.41
9335;BME280;4706;41.844;26.082;2024-02-23T05:13:12;100743.09;;;9.22;88.78
9335;BME280;4706;41.844;26.082;2024-02-23T05:15:37;100735.19;;;9.16;89.42
9335;BME280;4706;41.844;26.082;2024-02-23T05:18:03;100735.47;;;9.14;89.31
9335;BME280;4706;41.844;26.082;2024-02-23T05:20:28;100725.69;;;9.03;89.50
9335;BME280;4706;41.844;26.082;2024-02-23T05:22:54;100742.06;;;9.13;88.87
9335;BME280;4706;41.844;26.082;2024-02-23T05:25:19;100746.97;;;9.16;88.95
9335;BME280;4706;41.844;26.082;2024-02-23T05:27:45;100756.56;;;9.19;89.33
9335;BME280;4706;41.844;26.082;2024-02-23T05:30:11;100752.44;;;9.21;89.17
9335;BME280;4706;41.844;26.082;2024-02-23T05:32:36;100751.94;;;9.14;88.96
9335;BME280;4706;41.844;26.082;2024-02-23T05:35:02;100756.31;;;9.15;89.53
9335;BME280;4706;41.844;26.082;2024-02-23T05:37:28;100753.53;;;9.20;89.82
9335;BME280;4706;41.844;26.082;2024-02-23T05:39:54;100756.13;;;9.36;88.84
9335;BME280;4706;41.844;26.082;2024-02-23T05:42:19;100767.72;;;9.33;89.29
9335;BME280;4706;41.844;26.082;2024-02-23T05:44:46;100763.00;;;9.38;89.27
9335;BME280;4706;41.844;26.082;2024-02-23T05:47:11;100765.34;;;9.50;88.85
9335;BME280;4706;41.844;26.082;2024-02-23T05:49:39;100764.16;;;9.61;87.89
9335;BME280;4706;41.844;26.082;2024-02-23T05:52:04;100766.31;;;9.64;86.72
9335;BME280;4706;41.844;26.082;2024-02-23T05:54:30;100766.41;;;9.54;86.90
9335;BME280;4706;41.844;26.082;2024-02-23T05:56:55;100763.16;;;9.52;87.17
9335;BME280;4706;41.844;26.082;2024-02-23T05:59:21;100772.47;;;9.51;87.23
9335;BME280;4706;41.844;26.082;2024-02-23T06:01:46;100781.50;;;9.57;86.92
9335;BME280;4706;41.844;26.082;2024-02-23T06:04:12;100771.47;;;9.42;88.93
9335;BME280;4706;41.844;26.082;2024-02-23T06:06:40;100780.59;;;9.32;90.77
9335;BME280;4706;41.844;26.082;2024-02-23T06:09:06;100772.25;;;9.13;92.01
9335;BME280;4706;41.844;26.082;2024-02-23T06:11:31;100764.97;;;9.33;91.95
9335;BME280;4706;41.844;26.082;2024-02-23T06:13:56;100765.09;;;9.46;92.24
9335;BME280;4706;41.844;26.082;2024-02-23T06:16:22;100767.44;;;9.63;92.32
9335;BME280;4706;41.844;26.082;2024-02-23T06:18:47;100756.06;;;9.75;91.25
9335;BME280;4706;41.844;26.082;2024-02-23T06:21:16;100766.91;;;9.85;91.80
9335;BME280;4706;41.844;26.082;2024-02-23T06:23:43;100778.09;;;9.94;92.10
9335;BME280;4706;41.844;26.082;2024-02-23T06:26:10;100774.13;;;10.05;92.11
9335;BME280;4706;41.844;26.082;2024-02-23T06:28:36;100778.69;;;10.15;93.05
9335;BME280;4706;41.844;26.082;2024-02-23T06:31:05;100780.34;;;10.40;91.75
9335;BME280;4706;41.844;26.082;2024-02-23T06:33:31;100781.72;;;10.61;90.02
9335;BME280;4706;41.844;26.082;2024-02-23T06:35:56;100790.09;;;10.70;89.34
9335;BME280;4706;41.844;26.082;2024-02-23T06:38:22;100795.09;;;10.87;88.08
9335;BME280;4706;41.844;26.082;2024-02-23T06:40:47;100800.59;;;10.68;89.45
9335;BME280;4706;41.844;26.082;2024-02-23T06:43:13;100767.94;;;10.42;90.34
9335;BME280;4706;41.844;26.082;2024-02-23T06:45:38;100800.22;;;10.75;89.38
9335;BME280;4706;41.844;26.082;2024-02-23T06:48:05;100792.56;;;10.72;89.85
9335;BME280;4706;41.844;26.082;2024-02-23T06:50:30;100788.94;;;10.76;90.11
9335;BME280;4706;41.844;26.082;2024-02-23T06:52:56;100788.94;;;10.95;89.84
9335;BME280;4706;41.844;26.082;2024-02-23T06:55:21;100790.88;;;11.13;88.62
9335;BME280;4706;41.844;26.082;2024-02-23T06:57:47;100788.53;;;11.21;88.92
9335;BME280;4706;41.844;26.082;2024-02-23T07:00:12;100784.81;;;11.30;88.67
9335;BME280;4706;41.844;26.082;2024-02-23T07:02:38;100787.69;;;11.39;89.07
9335;BME280;4706;41.844;26.082;2024-02-23T07:05:04;100787.56;;;11.30;90.22
9335;BME280;4706;41.844;26.082;2024-02-23T07:07:31;100787.84;;;11.61;89.58
9335;BME280;4706;41.844;26.082;2024-02-23T07:09:59;100784.41;;;12.16;86.90
9335;BME280;4706;41.844;26.082;2024-02-23T07:12:25;100777.72;;;12.45;85.49
9335;BME280;4706;41.844;26.082;2024-02-23T07:14:53;100782.59;;;12.75;84.43
9335;BME280;4706;41.844;26.082;2024-02-23T07:17:18;100790.28;;;13.01;83.96
9335;BME280;4706;41.844;26.082;2024-02-23T07:19:44;100785.25;;;13.17;83.03
9335;BME280;4706;41.844;26.082;2024-02-23T07:22:10;100785.16;;;13.08;85.00
9335;BME280;4706;41.844;26.082;2024-02-23T07:24:42;100781.44;;;13.12;84.42
9335;BME280;4706;41.844;26.082;2024-02-23T07:27:07;100766.84;;;13.34;85.01
9335;BME280;4706;41.844;26.082;2024-02-23T07:29:33;100768.66;;;13.62;82.90
9335;BME280;4706;41.844;26.082;2024-02-23T07:31:58;100762.38;;;13.70;82.37
9335;BME280;4706;41.844;26.082;2024-02-23T07:34:24;100762.63;;;13.91;82.43
9335;BME280;4706;41.844;26.082;2024-02-23T07:36:53;100760.94;;;14.12;81.93
9335;BME280;4706;41.844;26.082;2024-02-23T07:39:19;100755.28;;;14.26;82.51
9335;BME280;4706;41.844;26.082;2024-02-23T07:41:45;100739.84;;;14.42;81.68
9335;BME280;4706;41.844;26.082;2024-02-23T07:44:11;100759.78;;;14.62;81.20
9335;BME280;4706;41.844;26.082;2024-02-23T07:46:37;100747.72;;;14.66;80.89
9335;BME280;4706;41.844;26.082;2024-02-23T07:49:04;100757.72;;;14.93;80.71
9335;BME280;4706;41.844;26.082;2024-02-23T07:51:31;100751.03;;;14.94;81.27
9335;BME280;4706;41.844;26.082;2024-02-23T07:53:57;100746.28;;;15.12;80.77
9335;BME280;4706;41.844;26.082;2024-02-23T07:56:22;100755.81;;;15.49;78.90
9335;BME280;4706;41.844;26.082;2024-02-23T07:58:48;100753.91;;;15.50;79.34
9335;BME280;4706;41.844;26.082;2024-02-23T08:01:16;100754.88;;;15.37;79.95
9335;BME280;4706;41.844;26.082;2024-02-23T08:03:42;100745.91;;;15.40;80.54
9335;BME280;4706;41.844;26.082;2024-02-23T08:06:08;100742.72;;;15.85;78.35
9335;BME280;4706;41.844;26.082;2024-02-23T08:08:33;100736.97;;;15.98;78.28
9335;BME280;4706;41.844;26.082;2024-02-23T08:11:04;100734.28;;;16.11;77.34
9335;BME280;4706;41.844;26.082;2024-02-23T08:13:30;100735.81;;;15.99;77.84
9335;BME280;4706;41.844;26.082;2024-02-23T08:15:57;100735.69;;;16.25;76.97
9335;BME280;4706;41.844;26.082;2024-02-23T08:18:23;100728.97;;;16.26;76.52
9335;BME280;4706;41.844;26.082;2024-02-23T08:20:49;100726.50;;;16.55;76.46
9335;BME280;4706;41.844;26.082;2024-02-23T08:23:14;100712.34;;;16.68;74.86
9335;BME280;4706;41.844;26.082;2024-02-23T08:25:40;100731.91;;;16.51;75.85
9335;BME280;4706;41.844;26.082;2024-02-23T08:28:06;100732.09;;;16.75;75.23
9335;BME280;4706;41.844;26.082;2024-02-23T08:30:32;100728.66;;;16.79;74.49
9335;BME280;4706;41.844;26.082;2024-02-23T08:32:58;100730.56;;;16.57;75.99
9335;BME280;4706;41.844;26.082;2024-02-23T08:35:24;100738.94;;;16.99;74.14
9335;BME280;4706;41.844;26.082;2024-02-23T08:37:50;100741.25;;;16.97;73.39
9335;BME280;4706;41.844;26.082;2024-02-23T08:40:15;100741.56;;;17.16;73.76
9335;BME280;4706;41.844;26.082;2024-02-23T08:42:41;100738.66;;;17.46;73.33
9335;BME280;4706;41.844;26.082;2024-02-23T08:45:08;100738.84;;;17.74;71.67
9335;BME280;4706;41.844;26.082;2024-02-23T08:47:39;100721.50;;;17.89;71.29
9335;BME280;4706;41.844;26.082;2024-02-23T08:50:06;100724.75;;;18.16;71.31
9335;BME280;4706;41.844;26.082;2024-02-23T08:52:31;100725.91;;;18.27;70.12
9335;BME280;4706;41.844;26.082;2024-02-23T08:54:57;100712.81;;;18.15;69.95
9335;BME280;4706;41.844;26.082;2024-02-23T08:57:22;100708.72;;;18.37;69.70
9335;BME280;4706;41.844;26.082;2024-02-23T08:59:51;100708.44;;;18.67;68.54
9335;BME280;4706;41.844;26.082;2024-02-23T09:02:17;100716.69;;;18.76;66.97
9335;BME280;4706;41.844;26.082;2024-02-23T09:04:44;100706.91;;;18.82;66.78
9335;BME280;4706;41.844;26.082;2024-02-23T09:07:11;100683.72;;;18.78;68.28
9335;BME280;4706;41.844;26.082;2024-02-23T09:09:37;100689.84;;;19.11;68.15
9335;BME280;4706;41.844;26.082;2024-02-23T09:12:02;100692.59;;;19.39;65.17
9335;BME280;4706;41.844;26.082;2024-02-23T09:14:29;100696.09;;;19.36;64.79
9335;BME280;4706;41.844;26.082;2024-02-23T09:16:55;100681.41;;;19.24;64.03
9335;BME280;4706;41.844;26.082;2024-02-23T09:19:20;100684.00;;;19.16;65.32
9335;BME280;4706;41.844;26.082;2024-02-23T09:21:46;100680.25;;;19.25;63.63
9335;BME280;4706;41.844;26.082;2024-02-23T09:24:12;100685.69;;;19.49;63.75
9335;BME280;4706;41.844;26.082;2024-02-23T09:26:37;100676.56;;;19.64;61.16
9335;BME280;4706;41.844;26.082;2024-02-23T09:29:04;100681.00;;;20.01;61.65
9335;BME280;4706;41.844;26.082;2024-02-23T09:31:30;100668.28;;;20.19;60.28
9335;BME280;4706;41.844;26.082;2024-02-23T09:33:57;100671.13;;;20.54;58.07
9335;BME280;4706;41.844;26.082;2024-02-23T09:36:22;100653.09;;;20.71;57.12
9335;BME280;4706;41.844;26.082;2024-02-23T09:38:48;100654.09;;;21.21;55.16
9335;BME280;4706;41.844;26.082;2024-02-23T09:41:19;100646.34;;;21.57;52.04
9335;BME280;4706;41.844;26.082;2024-02-23T09:43:47;100639.53;;;21.81;48.87
9335;BME280;4706;41.844;26.082;2024-02-23T09:46:14;100642.84;;;22.13;48.72
9335;BME280;4706;41.844;26.082;2024-02-23T09:48:44;100640.09;;;22.43;45.88
9335;BME280;4706;41.844;26.082;2024-02-23T09:51:10;100645.03;;;22.53;44.08
9335;BME280;4706;41.844;26.082;2024-02-23T09:53:38;100649.84;;;22.53;43.55
9335;BME280;4706;41.844;26.082;2024-02-23T09:56:04;100639.00;;;22.51;43.77
9335;BME280;4706;41.844;26.082;2024-02-23T09:58:32;100654.75;;;22.63;43.19
9335;BME280;4706;41.844;26.082;2024-02-23T10:00:58;100637.63;;;22.68;42.81
9335;BME280;4706;41.844;26.082;2024-02-23T10:03:27;100618.84;;;22.72;42.69
9335;BME280;4706;41.844;26.082;2024-02-23T10:05:59;100626.06;;;22.73;41.37
9335;BME280;4706;41.844;26.082;2024-02-23T10:08:27;100628.81;;;22.70;40.99
9335;BME280;4706;41.844;26.082;2024-02-23T10:10:53;100637.53;;;22.61;41.12
9335;BME280;4706;41.844;26.082;2024-02-23T10:13:20;100631.78;;;22.50;40.31
9335;BME280;4706;41.844;26.082;2024-02-23T10:15:49;100647.13;;;22.60;40.72
9335;BME280;4706;41.844;26.082;2024-02-23T10:18:16;100629.22;;;22.68;41.31
9335;BME280;4706;41.844;26.082;2024-02-23T10:20:41;100614.13;;;22.80;40.47
9335;BME280;4706;41.844;26.082;2024-02-23T10:23:08;100619.97;;;22.64;41.07
9335;BME280;4706;41.844;26.082;2024-02-23T10:25:34;100621.88;;;22.60;41.40
9335;BME280;4706;41.844;26.082;2024-02-23T10:28:01;100615.50;;;22.63;40.71
9335;BME280;4706;41.844;26.082;2024-02-23T10:30:27;100612.47;;;22.75;40.10
9335;BME280;4706;41.844;26.082;2024-02-23T10:32:55;100612.34;;;22.65;40.17
9335;BME280;4706;41.844;26.082;2024-02-23T10:35:21;100613.59;;;22.71;40.13
9335;BME280;4706;41.844;26.082;2024-02-23T10:37:51;100612.53;;;22.83;39.97
9335;BME280;4706;41.844;26.082;2024-02-23T10:40:19;100607.75;;;22.83;40.01
9335;BME280;4706;41.844;26.082;2024-02-23T10:42:46;100589.88;;;22.95;39.53
9335;BME280;4706;41.844;26.082;2024-02-23T10:45:20;100604.44;;;22.74;39.57
9335;BME280;4706;41.844;26.082;2024-02-23T10:47:56;100588.13;;;22.83;39.43
9335;BME280;4706;41.844;26.082;2024-02-23T10:50:23;100592.81;;;23.06;40.04
9335;BME280;4706;41.844;26.082;2024-02-23T10:52:50;100591.75;;;23.21;40.04
9335;BME280;4706;41.844;26.082;2024-02-23T10:55:15;100596.56;;;23.24;39.85
9335;BME280;4706;41.844;26.082;2024-02-23T10:57:41;100601.63;;;23.08;39.87
9335;BME280;4706;41.844;26.082;2024-02-23T11:00:08;100587.53;;;23.00;40.86
9335;BME280;4706;41.844;26.082;2024-02-23T11:02:54;100586.72;;;23.00;40.30
9335;BME280;4706;41.844;26.082;2024-02-23T11:05:22;100575.28;;;22.82;40.90
9335;BME280;4706;41.844;26.082;2024-02-23T11:07:49;100579.72;;;22.83;41.12
9335;BME280;4706;41.844;26.082;2024-02-23T11:10:16;100568.22;;;22.92;40.03
9335;BME280;4706;41.844;26.082;2024-02-23T11:12:42;100575.97;;;23.09;39.85
9335;BME280;4706;41.844;26.082;2024-02-23T11:15:08;100575.84;;;22.95;40.50
9335;BME280;4706;41.844;26.082;2024-02-23T11:17:36;100565.97;;;23.08;39.75
9335;BME280;4706;41.844;26.082;2024-02-23T11:20:03;100568.84;;;23.15;39.66
9335;BME280;4706;41.844;26.082;2024-02-23T11:22:31;100561.16;;;23.09;37.92
9335;BME280;4706;41.844;26.082;2024-02-23T11:25:03;100558.03;;;23.17;37.90
9335;BME280;4706;41.844;26.082;2024-02-23T11:27:33;100563.22;;;23.15;37.24
9335;BME280;4706;41.844;26.082;2024-02-23T11:32:38;100553.81;;;23.41;37.86
9335;BME280;4706;41.844;26.082;2024-02-23T11:35:11;100551.41;;;23.40;37.36
9335;BME280;4706;41.844;26.082;2024-02-23T11:37:52;100551.97;;;23.60;36.46
9335;BME280;4706;41.844;26.082;2024-02-23T11:40:25;100545.22;;;23.68;36.90
9335;BME280;4706;41.844;26.082;2024-02-23T11:42:51;100533.59;;;23.69;35.87
9335;BME280;4706;41.844;26.082;2024-02-23T11:45:17;100549.56;;;23.65;35.15
9335;BME280;4706;41.844;26.082;2024-02-23T11:47:42;100538.53;;;23.35;35.76
9335;BME280;4706;41.844;26.082;2024-02-23T11:50:11;100525.69;;;23.34;35.88
9335;BME280;4706;41.844;26.082;2024-02-23T11:52:37;100539.75;;;23.38;35.86
9335;BME280;4706;41.844;26.082;2024-02-23T11:55:03;100540.56;;;23.38;35.73
9335;BME280;4706;41.844;26.082;2024-02-23T11:57:34;100526.56;;;23.42;35.78
9335;BME280;4706;41.844;26.082;2024-02-23T12:00:06;100516.97;;;23.46;35.84
9335;BME280;4706;41.844;26.082;2024-02-23T12:02:35;100531.41;;;23.45;35.63
9335;BME280;4706;41.844;26.082;2024-02-23T12:05:00;100527.47;;;23.57;36.52
9335;BME280;4706;41.844;26.082;2024-02-23T12:07:30;100527.06;;;23.55;35.36
9335;BME280;4706;41.844;26.082;2024-02-23T12:09:56;100518.09;;;23.38;35.08
9335;BME280;4706;41.844;26.082;2024-02-23T12:12:23;100522.44;;;23.25;35.30
9335;BME280;4706;41.844;26.082;2024-02-23T12:14:48;100514.78;;;23.22;35.44
9335;BME280;4706;41.844;26.082;2024-02-23T12:17:14;100510.44;;;23.32;35.12
9335;BME280;4706;41.844;26.082;2024-02-23T12:19:40;100516.47;;;23.34;35.51
9335;BME280;4706;41.844;26.082;2024-02-23T12:22:05;100504.81;;;23.32;35.62
9335;BME280;4706;41.844;26.082;2024-02-23T12:24:31;100518.38;;;23.22;35.17
9335;BME280;4706;41.844;26.082;2024-02-23T12:26:57;100514.19;;;22.98;36.57
9335;BME280;4706;41.844;26.082;2024-02-23T12:29:23;100522.66;;;23.06;37.21
9335;BME280;4706;41.844;26.082;2024-02-23T12:31:49;100512.28;;;23.10;36.34
9335;BME280;4706;41.844;26.082;2024-02-23T12:34:15;100513.44;;;23.09;35.25
9335;BME280;4706;41.844;26.082;2024-02-23T12:36:42;100508.25;;;23.07;35.62
9335;BME280;4706;41.844;26.082;2024-02-23T12:39:08;100508.69;;;23.13;36.22
9335;BME280;4706;41.844;26.082;2024-02-23T12:41:34;100496.97;;;23.00;36.12
9335;BME280;4706;41.844;26.082;2024-02-23T12:43:59;100513.38;;;23.01;36.83
9335;BME280;4706;41.844;26.082;2024-02-23T12:46:25;100507.81;;;23.05;37.25
9335;BME280;4706;41.844;26.082;2024-02-23T12:48:51;100510.03;;;22.89;37.57
9335;BME280;4706;41.844;26.082;2024-02-23T12:51:16;100500.41;;;22.86;37.62
9335;BME280;4706;41.844;26.082;2024-02-23T12:53:42;100503.75;;;22.99;37.05
9335;BME280;4706;41.844;26.082;2024-02-23T12:56:10;100512.19;;;22.99;37.07
9335;BME280;4706;41.844;26.082;2024-02-23T12:58:37;100500.00;;;22.84;37.24
9335;BME280;4706;41.844;26.082;2024-02-23T13:01:03;100512.81;;;22.48;38.16